Prather, California
Current Conditions -  °F | °C
As of 6:14 AM on Sunday 21 Dec 2014 (Local Time) from KFAT Reporting Station
Moderate Fog Moderate Fog  
Wind Chill:   Ceiling: 200
Heat Index:   Visibility: 0.12mi
Dew Point:   Wind: 0mph
Humidity: 100%   Direction: NA
Pressure: 30.28"   Gusts: NA
Location:  37.04°N, 119.51°W
Report Text: KFAT 211414Z 00000KT 1/8SM R29R/1800V2400FT FG VV002 08/08 A3028 RMK AO2 T00780078
Loading
Personal Weather Stations






























Interactive Weather Map New forecast layout! Learn more

10-Day Weather Forecast

Advertisements
Track Severe Weather on mobile